Time;durP1;ratioP1;P1;durP2;ratioP2;P2;SDS_P1;SDS_P2;PMS_P1;PMS_P2;Temp;Humidity;BMP_temperature;BMP_pressure;BME280_temperature;BME280_humidity;BME280_pressure;Samples;Min_cycle;Max_cycle;Signal;HPM_P1;HPM_P2
2021/05/09 00:01:05;;;;;;;1.90;1.80;;;10.60;99.90;;;;;;483044;246;28132;-71
2021/05/09 00:03:06;;;;;;;1.90;1.80;;;10.60;99.90;;;;;;483044;246;28218;-72
2021/05/09 00:05:07;;;;;;;1.70;1.60;;;10.60;99.90;;;;;;483044;246;28186;-72
2021/05/09 00:07:10;;;;;;;1.70;1.60;;;10.50;99.90;;;;;;483020;242;28756;-72
2021/05/09 00:09:10;;;;;;;2.27;2.13;;;10.50;99.90;;;;;;483032;246;28692;-71
2021/05/09 00:11:11;;;;;;;1.83;1.60;;;10.60;99.90;;;;;;483028;246;28775;-71
2021/05/09 00:13:12;;;;;;;1.70;1.60;;;10.50;99.90;;;;;;483039;246;28573;-72
2021/05/09 00:15:14;;;;;;;2.03;1.93;;;10.50;99.90;;;;;;483040;246;28194;-71
2021/05/09 00:17:15;;;;;;;1.70;1.60;;;10.50;99.90;;;;;;483046;246;28094;-71
2021/05/09 00:19:16;;;;;;;3.40;2.23;;;10.40;99.90;;;;;;483033;246;28111;-71
2021/05/09 00:21:17;;;;;;;1.70;1.60;;;10.40;99.90;;;;;;483038;246;28310;-72
2021/05/09 00:23:19;;;;;;;3.37;1.80;;;10.40;99.90;;;;;;483047;246;28215;-73
2021/05/09 00:25:20;;;;;;;2.53;1.90;;;10.40;99.90;;;;;;483030;246;28310;-71
2021/05/09 00:27:21;;;;;;;1.80;1.70;;;10.40;99.90;;;;;;483025;246;27989;-72
2021/05/09 00:29:22;;;;;;;1.70;1.60;;;10.40;99.90;;;;;;483028;246;28096;-71
2021/05/09 00:31:24;;;;;;;3.03;2.07;;;10.40;99.90;;;;;;483027;246;28455;-71
2021/05/09 00:33:25;;;;;;;1.63;1.53;;;10.40;99.90;;;;;;483033;246;28631;-73
2021/05/09 00:35:26;;;;;;;2.00;1.80;;;10.40;99.90;;;;;;483036;246;28554;-71
2021/05/09 00:37:27;;;;;;;2.33;1.90;;;10.40;99.90;;;;;;483053;246;28633;-71
2021/05/09 00:39:29;;;;;;;2.10;2.00;;;10.50;99.90;;;;;;483044;246;28068;-72
2021/05/09 00:41:30;;;;;;;1.70;1.60;;;10.50;99.90;;;;;;483047;246;28202;-72
2021/05/09 00:43:31;;;;;;;1.87;1.77;;;10.50;99.90;;;;;;483065;246;28786;-71
2021/05/09 00:45:32;;;;;;;1.63;1.53;;;10.50;99.90;;;;;;483021;246;28117;-71
2021/05/09 00:47:34;;;;;;;1.80;1.70;;;10.50;99.90;;;;;;483020;242;28024;-72
2021/05/09 00:49:35;;;;;;;1.93;1.83;;;10.50;99.90;;;;;;483022;246;28204;-72
2021/05/09 00:51:36;;;;;;;1.90;1.70;;;10.50;99.90;;;;;;483014;246;28141;-72
2021/05/09 00:53:37;;;;;;;2.60;2.03;;;10.60;99.90;;;;;;483072;243;28097;-71
2021/05/09 00:55:39;;;;;;;3.57;1.80;;;10.60;99.90;;;;;;483027;246;28726;-71
2021/05/09 00:57:40;;;;;;;3.23;1.90;;;10.60;99.90;;;;;;483034;246;28689;-71
2021/05/09 00:59:41;;;;;;;2.50;1.70;;;10.70;99.90;;;;;;483030;246;28642;-71
2021/05/09 01:01:42;;;;;;;2.10;2.00;;;10.70;99.90;;;;;;483035;246;28319;-71
2021/05/09 01:03:44;;;;;;;1.93;1.73;;;10.80;99.90;;;;;;483039;246;28189;-74
2021/05/09 01:05:45;;;;;;;1.90;1.80;;;10.90;99.90;;;;;;483032;246;28097;-71
2021/05/09 01:07:46;;;;;;;1.60;1.50;;;11.00;99.90;;;;;;483019;246;28216;-71
2021/05/09 01:09:47;;;;;;;2.33;1.60;;;11.00;99.90;;;;;;483036;246;28224;-72
2021/05/09 01:11:49;;;;;;;1.93;1.83;;;11.00;99.90;;;;;;483032;246;28205;-73
2021/05/09 01:13:50;;;;;;;1.80;1.70;;;11.00;99.90;;;;;;483029;246;28155;-72
2021/05/09 01:15:51;;;;;;;1.77;1.67;;;10.90;99.90;;;;;;483036;246;28099;-73
2021/05/09 01:17:52;;;;;;;1.37;1.37;;;10.90;99.90;;;;;;483027;246;28315;-74
2021/05/09 01:19:54;;;;;;;2.13;1.93;;;11.00;99.90;;;;;;483031;246;28345;-72
2021/05/09 01:21:55;;;;;;;1.93;1.83;;;11.00;99.90;;;;;;483022;246;28523;-73
2021/05/09 01:23:56;;;;;;;2.70;1.90;;;11.10;99.90;;;;;;483018;246;28887;-72
2021/05/09 01:25:57;;;;;;;1.90;1.80;;;11.20;99.90;;;;;;483026;246;28532;-73
2021/05/09 01:27:59;;;;;;;1.83;1.73;;;11.20;99.90;;;;;;483020;246;28672;-73
2021/05/09 01:30:00;;;;;;;2.07;1.70;;;11.30;99.90;;;;;;483021;246;28274;-73
2021/05/09 01:32:01;;;;;;;1.70;1.60;;;11.40;99.90;;;;;;483023;246;28337;-73
2021/05/09 01:34:02;;;;;;;2.13;1.97;;;11.50;99.90;;;;;;483014;246;28200;-72
2021/05/09 01:36:04;;;;;;;1.77;1.67;;;11.40;99.90;;;;;;483026;246;28309;-73
2021/05/09 01:38:06;;;;;;;2.50;1.80;;;;;;;;;;483017;246;28673;-73
2021/05/09 01:40:11;;;;;;;2.10;1.90;;;;;;;;;;483046;244;27486;-72
2021/05/09 01:42:10;;;;;;;2.60;1.70;;;11.40;99.90;;;;;;482926;246;27232;-72
2021/05/09 01:44:11;;;;;;;2.97;1.73;;;11.40;99.90;;;;;;483027;246;28190;-72
2021/05/09 01:46:12;;;;;;;2.30;1.60;;;11.50;99.90;;;;;;483050;246;28231;-72
2021/05/09 01:48:14;;;;;;;1.77;1.63;;;11.40;99.90;;;;;;483034;246;28461;-73
2021/05/09 01:50:15;;;;;;;1.60;1.50;;;11.30;99.90;;;;;;483040;246;28581;-72
2021/05/09 01:52:16;;;;;;;1.70;1.60;;;11.40;99.90;;;;;;483025;243;28763;-73
2021/05/09 01:54:17;;;;;;;1.80;1.70;;;11.40;99.90;;;;;;483019;246;28723;-74
2021/05/09 01:56:20;;;;;;;2.00;1.90;;;;;;;;;;483023;246;28339;-73
2021/05/09 01:58:21;;;;;;;1.67;1.60;;;11.50;99.90;;;;;;483039;244;27218;-73
2021/05/09 02:00:22;;;;;;;1.77;1.67;;;11.50;99.90;;;;;;483024;246;28421;-72
2021/05/09 02:02:23;;;;;;;1.77;1.67;;;11.50;99.90;;;;;;483026;246;28888;-72
2021/05/09 02:04:25;;;;;;;3.30;1.90;;;11.40;99.90;;;;;;483017;246;28897;-73
2021/05/09 02:06:26;;;;;;;1.80;1.70;;;11.30;99.90;;;;;;483029;246;28662;-73
2021/05/09 02:08:27;;;;;;;3.90;1.63;;;11.20;99.90;;;;;;482991;246;28530;-72
2021/05/09 02:10:28;;;;;;;2.10;1.90;;;11.30;99.90;;;;;;483035;246;28073;-73
2021/05/09 02:12:30;;;;;;;2.07;1.90;;;11.30;99.90;;;;;;483025;246;28157;-73
2021/05/09 02:14:31;;;;;;;1.70;1.60;;;11.30;99.90;;;;;;483030;246;28101;-72
2021/05/09 02:16:32;;;;;;;2.20;2.00;;;11.20;99.90;;;;;;483032;246;28458;-74
2021/05/09 02:18:33;;;;;;;1.70;1.60;;;11.10;99.90;;;;;;483035;246;28322;-72
2021/05/09 02:20:35;;;;;;;1.90;1.80;;;11.10;99.90;;;;;;483028;246;27960;-72
2021/05/09 02:22:36;;;;;;;2.83;1.90;;;11.00;99.90;;;;;;483013;246;28182;-72
2021/05/09 02:24:37;;;;;;;1.80;1.70;;;11.10;99.90;;;;;;483030;246;28380;-73
2021/05/09 02:26:38;;;;;;;2.77;2.17;;;11.20;99.90;;;;;;483045;246;28554;-73
2021/05/09 02:28:42;;;;;;;2.20;2.10;;;11.20;99.90;;;;;;483014;242;28743;-72
2021/05/09 02:30:41;;;;;;;1.90;1.80;;;11.20;99.90;;;;;;482989;242;28939;-72
2021/05/09 02:32:42;;;;;;;1.90;1.77;;;11.40;99.90;;;;;;483012;246;28634;-72
2021/05/09 02:34:43;;;;;;;2.03;1.90;;;11.40;99.90;;;;;;483032;246;28188;-72
2021/05/09 02:36:45;;;;;;;2.00;1.80;;;11.50;99.90;;;;;;483022;246;28267;-74
2021/05/09 02:38:46;;;;;;;2.10;1.90;;;11.60;99.90;;;;;;483026;246;28533;-72
2021/05/09 02:40:47;;;;;;;2.07;1.80;;;11.50;99.90;;;;;;483029;246;28072;-73
2021/05/09 02:42:50;;;;;;;2.10;1.90;;;11.60;99.90;;;;;;483009;246;28459;-73
2021/05/09 02:44:50;;;;;;;2.03;1.70;;;11.60;99.90;;;;;;483011;246;28305;-73
2021/05/09 02:46:51;;;;;;;4.83;1.90;;;11.60;99.90;;;;;;483020;246;28941;-74
2021/05/09 02:48:52;;;;;;;1.90;1.80;;;11.50;99.90;;;;;;483016;246;28545;-72
2021/05/09 02:50:54;;;;;;;1.70;1.60;;;11.50;99.90;;;;;;483010;246;29202;-73
2021/05/09 02:52:55;;;;;;;1.80;1.70;;;11.50;99.90;;;;;;483017;246;28531;-72
2021/05/09 02:54:56;;;;;;;1.90;1.80;;;11.50;99.90;;;;;;483014;246;29300;-73
2021/05/09 02:56:57;;;;;;;4.97;2.10;;;11.40;99.90;;;;;;483018;246;28203;-74
2021/05/09 02:58:59;;;;;;;2.10;2.00;;;11.40;99.90;;;;;;483025;246;28282;-72
2021/05/09 03:01:00;;;;;;;1.87;1.77;;;11.40;99.90;;;;;;483023;246;28368;-72
2021/05/09 03:03:01;;;;;;;4.90;2.00;;;11.40;99.90;;;;;;483022;246;28544;-73
2021/05/09 03:05:02;;;;;;;2.47;1.90;;;11.50;99.90;;;;;;483022;246;28072;-72
2021/05/09 03:07:04;;;;;;;1.73;1.63;;;11.70;99.90;;;;;;483006;246;28439;-74
2021/05/09 03:09:06;;;;;;;2.40;1.83;;;;;;;;;;483019;246;28133;-72
2021/05/09 03:11:07;;;;;;;4.93;1.60;;;11.60;99.90;;;;;;483043;244;27313;-72
2021/05/09 03:13:08;;;;;;;2.60;2.27;;;11.60;99.90;;;;;;483000;246;28353;-72
2021/05/09 03:15:10;;;;;;;1.77;1.67;;;11.60;99.90;;;;;;483012;246;28355;-72
2021/05/09 03:17:11;;;;;;;1.97;1.80;;;11.60;99.90;;;;;;483013;246;28352;-72
2021/05/09 03:19:12;;;;;;;1.90;1.80;;;11.70;99.90;;;;;;483010;246;28084;-73
2021/05/09 03:21:14;;;;;;;2.10;2.00;;;11.80;99.90;;;;;;483012;246;27979;-72
2021/05/09 03:23:15;;;;;;;1.70;1.60;;;11.80;99.90;;;;;;483006;246;28321;-72
2021/05/09 03:25:16;;;;;;;2.00;1.90;;;11.80;99.90;;;;;;483015;246;28406;-72
2021/05/09 03:27:17;;;;;;;2.30;2.07;;;11.80;99.90;;;;;;483010;245;29009;-72
2021/05/09 03:29:18;;;;;;;1.90;1.80;;;11.80;99.90;;;;;;483009;246;29118;-73
2021/05/09 03:31:20;;;;;;;3.07;2.77;;;11.90;99.90;;;;;;483029;246;28767;-73
2021/05/09 03:33:21;;;;;;;2.30;2.10;;;11.90;99.90;;;;;;483038;246;28783;-72
2021/05/09 03:35:22;;;;;;;4.27;1.90;;;11.90;99.90;;;;;;483050;246;28560;-72
2021/05/09 03:37:25;;;;;;;2.13;1.93;;;;;;;;;;483042;246;28447;-72
2021/05/09 03:39:26;;;;;;;3.13;2.10;;;11.90;99.90;;;;;;483063;244;28165;-72
2021/05/09 03:41:27;;;;;;;2.87;1.80;;;11.90;99.90;;;;;;483039;242;28546;-72
2021/05/09 03:43:28;;;;;;;2.10;2.00;;;12.00;99.90;;;;;;483040;246;29306;-72
2021/05/09 03:45:30;;;;;;;1.80;1.70;;;12.00;99.90;;;;;;483052;246;27936;-72
2021/05/09 03:47:31;;;;;;;2.20;2.00;;;12.10;99.90;;;;;;483040;246;28442;-73
2021/05/09 03:49:32;;;;;;;2.27;2.07;;;12.20;99.90;;;;;;483038;246;28351;-72
2021/05/09 03:51:35;;;;;;;2.77;2.10;;;;;;;;;;483041;246;28345;-72
2021/05/09 03:53:36;;;;;;;2.27;2.13;;;12.30;99.90;;;;;;483048;246;27614;-72
2021/05/09 03:55:37;;;;;;;3.70;2.10;;;12.30;99.90;;;;;;483038;246;28878;-74
2021/05/09 03:57:38;;;;;;;3.63;1.70;;;12.30;99.90;;;;;;483051;246;28943;-71
2021/05/09 03:59:40;;;;;;;2.50;1.90;;;12.30;99.90;;;;;;483034;246;28341;-72
2021/05/09 04:01:42;;;;;;;2.40;2.20;;;12.30;99.90;;;;;;483041;246;28339;-72
2021/05/09 04:03:43;;;;;;;2.40;2.20;;;;;;;;;;483019;246;28216;-74
2021/05/09 04:05:45;;;;;;;2.07;1.97;;;12.30;99.90;;;;;;483056;244;27056;-72
2021/05/09 04:07:46;;;;;;;1.97;1.87;;;12.30;99.90;;;;;;483047;246;28694;-73
2021/05/09 04:09:47;;;;;;;2.37;2.20;;;12.30;99.90;;;;;;483019;246;28787;-72
2021/05/09 04:11:48;;;;;;;2.50;2.00;;;12.30;99.90;;;;;;483053;246;29065;-73
2021/05/09 04:13:51;;;;;;;4.00;2.20;;;;;;;;;;483015;246;28436;-73
2021/05/09 04:15:52;;;;;;;2.70;2.50;;;12.30;99.90;;;;;;483052;244;26629;-73
2021/05/09 04:17:53;;;;;;;2.20;2.10;;;12.40;99.90;;;;;;483024;246;28327;-72
2021/05/09 04:19:54;;;;;;;2.30;2.20;;;12.50;99.90;;;;;;483027;246;28812;-72
2021/05/09 04:21:57;;;;;;;2.47;2.27;;;;;;;;;;483014;246;28822;-72
2021/05/09 04:23:58;;;;;;;2.20;2.00;;;12.80;99.90;;;;;;483051;244;26539;-73
2021/05/09 04:25:59;;;;;;;2.03;1.93;;;12.80;99.90;;;;;;483029;246;28339;-72
2021/05/09 04:28:01;;;;;;;2.13;2.03;;;12.70;99.90;;;;;;483044;246;28647;-72
2021/05/09 04:30:02;;;;;;;2.47;2.03;;;12.80;99.90;;;;;;483016;246;28264;-72
2021/05/09 04:32:03;;;;;;;2.50;2.10;;;12.80;99.90;;;;;;483074;246;28531;-72
2021/05/09 04:34:04;;;;;;;2.83;2.53;;;12.80;99.90;;;;;;483024;246;28665;-72
2021/05/09 04:36:06;;;;;;;2.87;2.53;;;12.70;99.90;;;;;;483035;246;28766;-73
2021/05/09 04:38:07;;;;;;;2.70;2.50;;;12.80;99.90;;;;;;483037;246;28676;-73
2021/05/09 04:40:08;;;;;;;2.33;2.10;;;13.00;99.90;;;;;;483040;246;28346;-72
2021/05/09 04:42:09;;;;;;;2.70;2.50;;;13.10;99.90;;;;;;483033;246;28311;-72
2021/05/09 04:44:11;;;;;;;2.10;2.00;;;13.20;99.90;;;;;;483028;246;28508;-73
2021/05/09 04:48:18;;;;;;;3.00;2.40;;;13.10;99.90;;;;;;473979;243;28349;-80
2021/05/09 04:50:20;;;;;;;2.50;2.30;;;13.10;99.90;;;;;;477400;243;28333;-77
2021/05/09 04:52:21;;;;;;;2.90;2.33;;;13.20;99.90;;;;;;478030;243;28244;-79
2021/05/09 04:54:25;;;;;;;3.27;2.57;;;13.30;99.90;;;;;;477979;246;28508;-78
2021/05/09 04:56:23;;;;;;;2.53;2.20;;;13.50;99.90;;;;;;483635;240;28450;-78
2021/05/09 04:58:25;;;;;;;2.50;2.30;;;13.40;99.90;;;;;;488017;241;28292;-79
2021/05/09 05:00:26;;;;;;;3.40;3.10;;;13.50;99.90;;;;;;487830;240;28426;-79
2021/05/09 05:02:27;;;;;;;2.77;2.57;;;13.50;99.90;;;;;;487980;240;28389;-78
2021/05/09 05:04:31;;;;;;;3.27;2.70;;;13.60;99.90;;;;;;487994;240;28424;-78
2021/05/09 05:06:32;;;;;;;2.63;2.43;;;13.70;99.90;;;;;;487618;240;28804;-78
2021/05/09 05:08:34;;;;;;;3.20;2.60;;;13.70;99.90;;;;;;487417;240;28594;-78
2021/05/09 05:10:35;;;;;;;3.07;2.70;;;13.80;99.90;;;;;;487382;240;28819;-79
2021/05/09 05:12:36;;;;;;;2.93;2.67;;;13.70;99.90;;;;;;487436;243;28759;-76
2021/05/09 05:14:37;;;;;;;3.20;2.90;;;13.80;99.90;;;;;;487415;240;28796;-76
2021/05/09 05:16:41;;;;;;;2.87;2.30;;;13.80;99.90;;;;;;487267;240;28478;-78
2021/05/09 05:18:40;;;;;;;2.70;2.50;;;13.70;99.90;;;;;;487317;244;28476;-79
2021/05/09 05:20:41;;;;;;;3.10;2.80;;;13.90;99.90;;;;;;487406;244;28395;-79
2021/05/09 05:22:45;;;;;;;3.47;2.87;;;14.00;99.90;;;;;;487447;244;28430;-80
2021/05/09 05:24:44;;;;;;;7.30;3.10;;;14.10;99.90;;;;;;487210;244;28727;-78
2021/05/09 05:26:48;;;;;;;2.63;2.43;;;14.00;99.90;;;;;;487323;240;29290;-77
2021/05/09 05:28:49;;;;;;;3.00;2.50;;;14.10;99.90;;;;;;487412;241;28811;-79
2021/05/09 05:30:53;;;;;;;2.50;2.30;;;14.10;99.90;;;;;;487388;241;28710;-79
2021/05/09 05:32:54;;;;;;;2.30;1.87;;;14.10;99.90;;;;;;484793;241;28784;-78
2021/05/09 05:34:55;;;;;;;1.77;1.67;;;14.20;99.90;;;;;;487399;241;28476;-76
2021/05/09 05:36:59;;;;;;;4.53;2.10;;;14.20;99.90;;;;;;487345;240;28732;-79
2021/05/09 05:38:58;;;;;;;2.30;2.10;;;14.30;99.90;;;;;;487271;240;28797;-79
2021/05/09 05:40:59;;;;;;;2.23;2.03;;;14.30;99.90;;;;;;487369;244;28738;-78
2021/05/09 05:43:00;;;;;;;2.10;1.90;;;14.40;99.90;;;;;;487429;241;29268;-78
2021/05/09 05:45:02;;;;;;;2.83;2.00;;;14.40;99.90;;;;;;487407;244;28692;-79
2021/05/09 05:47:03;;;;;;;2.20;1.97;;;14.30;99.90;;;;;;487260;240;28786;-76
2021/05/09 05:49:04;;;;;;;2.00;1.87;;;14.40;99.90;;;;;;487420;240;29189;-77
2021/05/09 05:51:05;;;;;;;2.10;1.90;;;14.50;99.90;;;;;;487395;241;28789;-78
2021/05/09 05:53:07;;;;;;;2.73;1.90;;;14.60;99.90;;;;;;487095;244;28829;-77
2021/05/09 05:55:08;;;;;;;1.70;1.60;;;14.60;99.90;;;;;;487410;241;28779;-77
2021/05/09 05:57:09;;;;;;;3.20;1.80;;;14.80;99.90;;;;;;486070;240;28814;-78
2021/05/09 05:59:10;;;;;;;2.00;1.90;;;14.80;99.90;;;;;;485851;245;28821;-76
2021/05/09 06:01:12;;;;;;;1.77;1.67;;;14.70;99.90;;;;;;485854;245;28819;-80
2021/05/09 06:03:13;;;;;;;2.50;2.07;;;14.80;99.90;;;;;;485857;245;28485;-80
2021/05/09 06:05:14;;;;;;;4.30;2.13;;;14.80;99.90;;;;;;485838;242;28804;-77
2021/05/09 06:07:18;;;;;;;2.07;1.90;;;14.90;99.90;;;;;;487126;242;29336;-79
2021/05/09 06:09:22;;;;;;;1.97;1.77;;;14.90;99.90;;;;;;487403;244;28791;-77
2021/05/09 06:11:21;;;;;;;4.60;1.97;;;15.00;99.90;;;;;;487213;244;28780;-78
2021/05/09 06:13:23;;;;;;;2.00;1.90;;;15.20;99.90;;;;;;487406;240;28782;-77
2021/05/09 06:15:23;;;;;;;3.10;1.50;;;15.20;99.90;;;;;;487383;240;28704;-80
2021/05/09 06:17:25;;;;;;;1.70;1.60;;;15.30;99.90;;;;;;487412;241;28703;-77
2021/05/09 06:19:26;;;;;;;2.17;2.07;;;15.20;99.90;;;;;;487435;244;28710;-77
2021/05/09 06:21:27;;;;;;;1.73;1.63;;;15.40;99.90;;;;;;487379;241;29634;-78
2021/05/09 06:23:28;;;;;;;2.30;1.83;;;15.50;99.90;;;;;;487400;244;29501;-76
2021/05/09 06:25:30;;;;;;;1.73;1.63;;;15.60;99.90;;;;;;487247;240;28784;-78
2021/05/09 06:27:31;;;;;;;2.90;1.70;;;15.70;99.90;;;;;;487325;244;28682;-79
2021/05/09 06:29:32;;;;;;;1.87;1.77;;;15.70;99.90;;;;;;487428;241;28727;-77
2021/05/09 06:31:36;;;;;;;2.53;1.80;;;15.90;99.90;;;;;;487380;242;28696;-76
2021/05/09 06:33:37;;;;;;;2.27;1.60;;;15.90;99.90;;;;;;487391;240;28736;-77
2021/05/09 06:35:39;;;;;;;1.73;1.60;;;16.10;99.90;;;;;;487408;240;29346;-77
2021/05/09 06:37:43;;;;;;;2.97;1.60;;;16.10;99.90;;;;;;487376;241;29410;-77
2021/05/09 06:39:44;;;;;;;2.87;1.80;;;16.30;99.90;;;;;;486916;240;28807;-79
2021/05/09 06:41:51;;;;;;;3.60;1.63;;;16.20;99.90;;;;;;487385;240;28789;-78
2021/05/09 06:43:58;;;;;;;1.87;1.77;;;16.30;99.90;;;;;;487234;244;28809;-77
2021/05/09 06:45:50;;;;;;;2.50;2.30;;;16.40;99.90;;;;;;486869;240;28748;-77
2021/05/09 06:47:51;;;;;;;2.30;1.77;;;16.30;99.90;;;;;;487409;240;28737;-77
2021/05/09 06:49:53;;;;;;;2.40;2.20;;;16.40;99.90;;;;;;487220;244;29376;-76
2021/05/09 06:51:56;;;;;;;2.00;1.83;;;16.60;99.90;;;;;;486753;244;29209;-79
2021/05/09 06:54:01;;;;;;;2.30;1.53;;;16.70;99.90;;;;;;487413;244;28748;-78
2021/05/09 06:55:59;;;;;;;3.77;1.87;;;16.80;99.90;;;;;;487104;240;29497;-78
2021/05/09 06:58:03;;;;;;;2.20;2.00;;;17.00;99.90;;;;;;487051;240;29344;-78
2021/05/09 07:00:04;;;;;;;2.87;2.00;;;17.10;99.90;;;;;;487394;244;28716;-76
2021/05/09 07:02:05;;;;;;;1.97;1.83;;;17.20;99.90;;;;;;487397;241;28722;-78
2021/05/09 07:04:09;;;;;;;2.33;1.80;;;17.10;99.90;;;;;;487370;244;28781;-76
2021/05/09 07:06:08;;;;;;;2.00;1.90;;;17.20;99.90;;;;;;487226;240;28777;-76
2021/05/09 07:08:09;;;;;;;1.97;1.87;;;17.30;99.90;;;;;;487425;244;28728;-77
2021/05/09 07:10:10;;;;;;;3.33;2.03;;;17.20;99.90;;;;;;487402;241;28757;-78
2021/05/09 07:12:12;;;;;;;2.73;1.70;;;17.30;99.90;;;;;;486858;240;28736;-78
2021/05/09 07:14:13;;;;;;;2.20;1.90;;;17.40;99.90;;;;;;487266;243;28721;-77
2021/05/09 07:16:14;;;;;;;1.80;1.70;;;17.40;99.90;;;;;;487403;240;28729;-78
2021/05/09 07:18:21;;;;;;;2.97;1.70;;;17.50;99.90;;;;;;487445;240;28712;-79
2021/05/09 07:20:20;;;;;;;2.33;1.90;;;17.50;99.90;;;;;;487364;240;28728;-76
2021/05/09 07:22:27;;;;;;;1.90;1.70;;;17.50;99.90;;;;;;487426;242;28729;-77
2021/05/09 07:24:22;;;;;;;3.97;1.97;;;17.60;99.90;;;;;;487348;243;28728;-77
2021/05/09 07:26:23;;;;;;;2.10;1.87;;;17.70;99.90;;;;;;487397;240;28721;-76
2021/05/09 07:28:30;;;;;;;4.80;2.50;;;17.70;99.90;;;;;;487436;244;28733;-79
2021/05/09 07:30:34;;;;;;;1.93;1.60;;;17.90;99.90;;;;;;487384;241;28828;-76
2021/05/09 07:32:36;;;;;;;2.60;1.70;;;17.90;99.90;;;;;;487219;244;28803;-77
2021/05/09 07:34:38;;;;;;;2.03;1.87;;;18.10;99.90;;;;;;487322;244;29403;-76
2021/05/09 07:36:39;;;;;;;1.87;1.63;;;18.00;99.90;;;;;;486257;240;28866;-77
2021/05/09 07:38:37;;;;;;;6.17;1.83;;;18.10;99.90;;;;;;484814;241;28805;-79
2021/05/09 07:40:38;;;;;;;1.70;1.60;;;18.10;99.90;;;;;;485840;242;28892;-77
2021/05/09 07:42:40;;;;;;;2.63;2.07;;;18.20;99.90;;;;;;485884;242;28917;-78
2021/05/09 07:44:41;;;;;;;1.80;1.70;;;18.10;99.90;;;;;;485859;242;28915;-79
2021/05/09 07:46:42;;;;;;;1.97;1.80;;;18.20;99.90;;;;;;485883;242;28819;-78
2021/05/09 07:48:43;;;;;;;1.90;1.80;;;18.20;99.90;;;;;;485904;242;28812;-77
2021/05/09 07:50:45;;;;;;;1.93;1.83;;;18.20;99.90;;;;;;485824;242;28931;-76
2021/05/09 07:52:46;;;;;;;1.77;1.67;;;18.30;99.90;;;;;;485861;242;28803;-78
2021/05/09 07:54:47;;;;;;;2.20;2.00;;;18.50;99.90;;;;;;485889;242;29437;-76
2021/05/09 07:56:48;;;;;;;2.67;1.90;;;18.50;99.90;;;;;;485855;242;29418;-78
2021/05/09 07:58:50;;;;;;;2.07;1.87;;;18.40;99.90;;;;;;485866;242;29564;-77
2021/05/09 08:00:54;;;;;;;2.20;1.93;;;18.60;99.90;;;;;;484845;241;28925;-77
2021/05/09 08:02:55;;;;;;;2.40;1.70;;;18.70;99.90;;;;;;485837;242;28856;-80
2021/05/09 08:04:56;;;;;;;2.63;2.10;;;18.70;99.90;;;;;;485878;242;29426;-79
2021/05/09 08:07:03;;;;;;;2.40;2.20;;;18.90;99.90;;;;;;486929;242;29293;-75
2021/05/09 08:09:05;;;;;;;2.80;1.90;;;19.00;99.90;;;;;;487427;241;28735;-78
2021/05/09 08:11:05;;;;;;;3.20;2.00;;;19.10;99.90;;;;;;487358;242;28771;-78
2021/05/09 08:13:07;;;;;;;1.93;1.80;;;19.10;99.90;;;;;;486958;244;28805;-77
2021/05/09 08:15:08;;;;;;;1.90;1.80;;;18.80;99.90;;;;;;487438;240;28704;-80
2021/05/09 08:17:09;;;;;;;2.10;1.90;;;19.10;99.90;;;;;;487360;240;28822;-77
2021/05/09 08:19:10;;;;;;;2.10;1.90;;;19.30;99.90;;;;;;487447;241;28713;-78
2021/05/09 08:21:14;;;;;;;2.47;1.90;;;19.30;99.90;;;;;;487386;244;28731;-81
2021/05/09 08:23:13;;;;;;;3.60;1.93;;;19.20;99.90;;;;;;487256;244;28705;-78
2021/05/09 08:25:17;;;;;;;1.87;1.77;;;19.40;99.90;;;;;;487402;240;28737;-78
2021/05/09 08:27:16;;;;;;;2.60;1.63;;;19.50;99.90;;;;;;487187;244;28708;-76
2021/05/09 08:29:17;;;;;;;1.90;1.80;;;19.40;99.90;;;;;;487391;243;28768;-78
2021/05/09 08:31:18;;;;;;;2.90;1.80;;;19.70;99.90;;;;;;487381;241;28751;-77
2021/05/09 08:33:19;;;;;;;1.80;1.70;;;19.60;99.90;;;;;;487413;241;29408;-78
2021/05/09 08:35:21;;;;;;;1.90;1.80;;;19.50;99.90;;;;;;487405;240;29298;-78
2021/05/09 08:37:23;;;;;;;2.70;1.77;;;19.60;99.90;;;;;;487378;244;29244;-78
2021/05/09 08:39:27;;;;;;;2.20;2.00;;;19.70;99.90;;;;;;487429;241;29279;-79
2021/05/09 08:41:28;;;;;;;2.93;1.57;;;19.90;99.90;;;;;;487396;240;28736;-77
2021/05/09 08:43:29;;;;;;;2.53;1.70;;;19.90;99.90;;;;;;487432;244;28715;-79
2021/05/09 08:45:33;;;;;;;3.40;1.90;;;19.90;99.90;;;;;;487391;240;28770;-78
2021/05/09 08:47:38;;;;;;;2.60;1.97;;;19.80;99.90;;;;;;487391;238;28800;-78
2021/05/09 08:49:41;;;;;;;1.90;1.80;;;19.90;99.90;;;;;;487427;244;28779;-78
2021/05/09 08:51:40;;;;;;;2.00;1.90;;;20.00;99.90;;;;;;487269;244;28717;-79
2021/05/09 08:53:43;;;;;;;2.10;2.00;;;20.10;99.90;;;;;;487437;245;28774;-77
2021/05/09 08:55:42;;;;;;;3.20;2.03;;;20.30;99.90;;;;;;487307;241;28715;-77
2021/05/09 08:57:49;;;;;;;1.70;1.60;;;20.30;99.90;;;;;;487434;244;28830;-78
2021/05/09 08:59:50;;;;;;;3.43;1.93;;;20.30;99.90;;;;;;487394;241;29344;-77
2021/05/09 09:01:51;;;;;;;3.80;2.30;;;20.30;99.90;;;;;;487411;244;29454;-77
2021/05/09 09:03:53;;;;;;;1.97;1.87;;;20.40;99.90;;;;;;487436;242;28801;-77
2021/05/09 09:05:56;;;;;;;4.57;1.90;;;20.50;99.90;;;;;;487328;240;28799;-77
2021/05/09 09:07:58;;;;;;;2.27;2.07;;;20.50;99.90;;;;;;487390;241;28723;-78
2021/05/09 09:09:59;;;;;;;1.60;1.50;;;20.80;99.90;;;;;;487410;244;28716;-77
2021/05/09 09:12:03;;;;;;;3.63;2.10;;;20.70;99.90;;;;;;487412;244;29279;-78
2021/05/09 09:14:04;;;;;;;2.23;2.03;;;20.70;99.90;;;;;;487428;244;28712;-75
2021/05/09 09:16:07;;;;;;;2.27;2.07;;;20.80;99.90;;;;;;487324;240;29285;-79
2021/05/09 09:18:14;;;;;;;2.13;2.00;;;20.90;99.90;;;;;;487411;240;28722;-75
2021/05/09 09:20:21;;;;;;;2.47;2.00;;;21.00;99.90;;;;;;486743;245;28696;-77
2021/05/09 09:22:19;;;;;;;1.73;1.63;;;21.10;99.90;;;;;;487166;245;28728;-76
2021/05/09 09:24:24;;;;;;;2.00;1.90;;;21.10;99.90;;;;;;487375;245;28729;-77
2021/05/09 09:26:22;;;;;;;1.93;1.83;;;21.10;99.90;;;;;;487160;241;29319;-80
2021/05/09 09:28:23;;;;;;;2.60;1.90;;;21.10;99.90;;;;;;487411;242;29403;-79
2021/05/09 09:30:25;;;;;;;4.77;2.67;;;21.20;99.90;;;;;;487393;244;28807;-80
2021/05/09 09:32:26;;;;;;;2.67;2.40;;;21.10;99.90;;;;;;487434;244;28706;-78
2021/05/09 09:34:27;;;;;;;2.50;2.10;;;21.00;99.90;;;;;;487429;245;28793;-80
2021/05/09 09:36:28;;;;;;;2.90;2.07;;;21.20;99.90;;;;;;487188;240;28710;-80
2021/05/09 09:38:30;;;;;;;2.33;1.83;;;21.30;99.90;;;;;;487290;241;28815;-79
2021/05/09 09:40:31;;;;;;;2.90;1.80;;;21.30;99.90;;;;;;487254;245;28833;-79
2021/05/09 09:42:32;;;;;;;5.90;2.13;;;21.50;99.90;;;;;;487390;241;28718;-78
2021/05/09 09:44:34;;;;;;;3.17;2.17;;;21.30;99.90;;;;;;487373;241;28765;-80
2021/05/09 09:46:35;;;;;;;3.70;2.20;;;21.30;99.90;;;;;;486400;242;29639;-78
2021/05/09 09:48:36;;;;;;;5.53;1.77;;;21.30;99.90;;;;;;485741;242;29454;-80
2021/05/09 09:50:37;;;;;;;5.13;2.03;;;21.50;99.90;;;;;;485863;242;29428;-76
2021/05/09 09:52:38;;;;;;;3.73;2.20;;;21.50;99.90;;;;;;485736;245;28857;-80
2021/05/09 09:54:40;;;;;;;2.00;1.90;;;21.40;99.90;;;;;;485726;245;28937;-80
2021/05/09 09:56:41;;;;;;;4.33;2.00;;;21.30;99.90;;;;;;485737;245;28790;-80
2021/05/09 09:58:42;;;;;;;2.30;2.10;;;21.60;99.90;;;;;;485772;245;28813;-79
2021/05/09 10:00:43;;;;;;;4.90;1.90;;;21.60;99.90;;;;;;485840;245;28876;-77
2021/05/09 10:02:45;;;;;;;4.30;2.30;;;21.80;99.90;;;;;;485765;240;28837;-79
2021/05/09 10:04:46;;;;;;;2.13;1.97;;;21.90;99.90;;;;;;485865;242;28819;-79
2021/05/09 10:06:48;;;;;;;2.50;1.80;;;22.10;99.90;;;;;;485831;242;29414;-78
2021/05/09 10:08:49;;;;;;;2.07;1.83;;;22.20;99.90;;;;;;485869;242;29430;-79
2021/05/09 10:10:50;;;;;;;2.20;1.90;;;22.20;99.90;;;;;;485719;242;29375;-79
2021/05/09 10:12:51;;;;;;;2.73;1.87;;;22.10;99.90;;;;;;485844;242;28848;-79
2021/05/09 10:14:53;;;;;;;2.00;1.87;;;22.10;99.90;;;;;;485740;245;28852;-78
2021/05/09 10:16:54;;;;;;;3.17;2.00;;;22.10;99.90;;;;;;485837;245;28912;-80
2021/05/09 10:18:55;;;;;;;2.60;1.90;;;22.10;99.90;;;;;;485859;245;28876;-79
2021/05/09 10:20:56;;;;;;;3.73;2.40;;;22.10;99.90;;;;;;485734;244;28898;-80
2021/05/09 10:22:58;;;;;;;1.67;1.57;;;22.10;99.90;;;;;;485859;245;28801;-77
2021/05/09 10:24:59;;;;;;;3.60;1.77;;;22.30;99.90;;;;;;485857;245;28926;-79
2021/05/09 10:27:01;;;;;;;2.00;1.90;;;22.10;99.90;;;;;;485735;245;28947;-80
2021/05/09 10:29:01;;;;;;;1.83;1.73;;;22.40;99.90;;;;;;485843;242;29439;-78
2021/05/09 10:31:03;;;;;;;2.97;2.10;;;22.80;99.70;;;;;;485831;245;29414;-80
2021/05/09 10:33:04;;;;;;;2.30;1.80;;;22.80;99.70;;;;;;485736;245;29416;-79
2021/05/09 10:35:05;;;;;;;2.20;2.00;;;22.70;98.90;;;;;;485861;242;28808;-80
2021/05/09 10:37:06;;;;;;;4.80;1.90;;;22.70;99.90;;;;;;485723;245;28851;-81